sensor_id;sensor_type;location;lat;lon;timestamp;pressure;altitude;pressure_sealevel;temperature;humidity
40838;BME280;29632;49.168;9.848;2023-02-13T00:00:05;98708.22;;;8.17;43.99
40838;BME280;29632;49.168;9.848;2023-02-13T00:02:31;98710.81;;;8.17;43.30
40838;BME280;29632;49.168;9.848;2023-02-13T00:04:57;98714.38;;;8.14;43.73
40838;BME280;29632;49.168;9.848;2023-02-13T00:07:22;98720.44;;;8.15;43.36
40838;BME280;29632;49.168;9.848;2023-02-13T00:09:48;98713.56;;;8.13;43.42
40838;BME280;29632;49.168;9.848;2023-02-13T00:12:13;98705.84;;;8.12;43.72
40838;BME280;29632;49.168;9.848;2023-02-13T00:14:39;98709.47;;;8.09;43.75
40838;BME280;29632;49.168;9.848;2023-02-13T00:17:05;98715.63;;;8.07;43.65
40838;BME280;29632;49.168;9.848;2023-02-13T00:19:31;98705.34;;;8.05;43.81
40838;BME280;29632;49.168;9.848;2023-02-13T00:21:57;98705.44;;;8.04;43.30
40838;BME280;29632;49.168;9.848;2023-02-13T00:24:22;98715.03;;;8.02;43.73
40838;BME280;29632;49.168;9.848;2023-02-13T00:26:48;98712.63;;;7.99;43.47
40838;BME280;29632;49.168;9.848;2023-02-13T00:29:14;98715.22;;;7.99;43.91
40838;BME280;29632;49.168;9.848;2023-02-13T00:31:39;98711.00;;;7.96;43.64
40838;BME280;29632;49.168;9.848;2023-02-13T00:34:05;98712.03;;;7.93;44.18
40838;BME280;29632;49.168;9.848;2023-02-13T00:36:31;98706.84;;;7.93;43.73
40838;BME280;29632;49.168;9.848;2023-02-13T00:38:56;98699.22;;;7.90;43.37
40838;BME280;29632;49.168;9.848;2023-02-13T00:41:22;98703.66;;;7.88;43.99
40838;BME280;29632;49.168;9.848;2023-02-13T00:43:48;98706.31;;;7.87;43.66
40838;BME280;29632;49.168;9.848;2023-02-13T00:46:14;98707.28;;;7.84;43.85
40838;BME280;29632;49.168;9.848;2023-02-13T00:48:40;98700.53;;;7.82;44.18
40838;BME280;29632;49.168;9.848;2023-02-13T00:51:06;98698.84;;;7.81;43.64
40838;BME280;29632;49.168;9.848;2023-02-13T00:53:33;98700.69;;;7.79;43.74
40838;BME280;29632;49.168;9.848;2023-02-13T00:55:59;98702.59;;;7.75;43.91
40838;BME280;29632;49.168;9.848;2023-02-13T00:58:25;98702.66;;;7.73;43.84
40838;BME280;29632;49.168;9.848;2023-02-13T01:00:52;98694.13;;;7.71;43.69
40838;BME280;29632;49.168;9.848;2023-02-13T01:03:18;98696.88;;;7.68;43.95
40838;BME280;29632;49.168;9.848;2023-02-13T01:05:44;98697.03;;;7.65;43.51
40838;BME280;29632;49.168;9.848;2023-02-13T01:08:10;98695.44;;;7.63;43.69
40838;BME280;29632;49.168;9.848;2023-02-13T01:10:38;98696.53;;;7.59;43.89
40838;BME280;29632;49.168;9.848;2023-02-13T01:13:04;98694.09;;;7.55;43.18
40838;BME280;29632;49.168;9.848;2023-02-13T01:15:30;98697.75;;;7.51;43.61
40838;BME280;29632;49.168;9.848;2023-02-13T01:17:57;98696.22;;;7.47;43.66
40838;BME280;29632;49.168;9.848;2023-02-13T01:20:23;98694.63;;;7.45;43.85
40838;BME280;29632;49.168;9.848;2023-02-13T01:22:49;98689.66;;;7.40;43.81
40838;BME280;29632;49.168;9.848;2023-02-13T01:25:15;98690.75;;;7.36;43.96
40838;BME280;29632;49.168;9.848;2023-02-13T01:27:41;98694.31;;;7.33;43.90
40838;BME280;29632;49.168;9.848;2023-02-13T01:30:09;98696.22;;;7.30;43.78
40838;BME280;29632;49.168;9.848;2023-02-13T01:32:42;98688.53;;;7.28;43.36
40838;BME280;29632;49.168;9.848;2023-02-13T01:35:09;98685.19;;;7.26;43.42
40838;BME280;29632;49.168;9.848;2023-02-13T01:37:36;98683.59;;;7.24;44.09
40838;BME280;29632;49.168;9.848;2023-02-13T01:40:02;98683.66;;;7.22;43.64
40838;BME280;29632;49.168;9.848;2023-02-13T01:42:30;98681.22;;;7.19;43.38
40838;BME280;29632;49.168;9.848;2023-02-13T01:44:57;98683.06;;;7.17;43.79
40838;BME280;29632;49.168;9.848;2023-02-13T01:47:53;98671.13;;;7.13;43.92
40838;BME280;29632;49.168;9.848;2023-02-13T01:50:29;98674.75;;;7.10;43.57
40838;BME280;29632;49.168;9.848;2023-02-13T01:53:00;98676.56;;;7.08;44.01
40838;BME280;29632;49.168;9.848;2023-02-13T01:55:27;98678.47;;;7.05;43.61
40838;BME280;29632;49.168;9.848;2023-02-13T01:57:56;98676.09;;;7.00;43.75
40838;BME280;29632;49.168;9.848;2023-02-13T02:00:23;98670.38;;;6.93;43.83
40838;BME280;29632;49.168;9.848;2023-02-13T02:02:57;98680.06;;;6.90;44.12
40838;BME280;29632;49.168;9.848;2023-02-13T02:05:26;98675.81;;;6.89;44.43
40838;BME280;29632;49.168;9.848;2023-02-13T02:07:53;98663.75;;;6.88;44.10
40838;BME280;29632;49.168;9.848;2023-02-13T02:10:19;98675.81;;;6.89;43.99
40838;BME280;29632;49.168;9.848;2023-02-13T02:13:03;98667.09;;;6.90;43.75
40838;BME280;29632;49.168;9.848;2023-02-13T02:15:30;98661.00;;;6.91;44.01
40838;BME280;29632;49.168;9.848;2023-02-13T02:17:56;98661.78;;;6.93;43.69
40838;BME280;29632;49.168;9.848;2023-02-13T02:37:03;98667.03;;;6.91;43.89
40838;BME280;29632;49.168;9.848;2023-02-13T02:45:03;98655.16;;;6.87;44.27
40838;BME280;29632;49.168;9.848;2023-02-13T02:47:50;98659.56;;;6.85;43.96
40838;BME280;29632;49.168;9.848;2023-02-13T02:53:22;98657.94;;;6.83;43.92
40838;BME280;29632;49.168;9.848;2023-02-13T02:56:20;98665.72;;;6.83;43.80
40838;BME280;29632;49.168;9.848;2023-02-13T02:59:01;98665.78;;;6.81;43.71
40838;BME280;29632;49.168;9.848;2023-02-13T03:01:54;98665.88;;;6.79;44.05
40838;BME280;29632;49.168;9.848;2023-02-13T03:04:45;98657.41;;;6.76;43.89
40838;BME280;29632;49.168;9.848;2023-02-13T03:07:29;98658.41;;;6.73;43.88
40838;BME280;29632;49.168;9.848;2023-02-13T03:09:57;98670.41;;;6.74;44.31
40838;BME280;29632;49.168;9.848;2023-02-13T03:12:48;98667.00;;;6.74;44.19
40838;BME280;29632;49.168;9.848;2023-02-13T03:15:35;98673.00;;;6.74;44.25
40838;BME280;29632;49.168;9.848;2023-02-13T03:18:21;98668.69;;;6.75;43.57
40838;BME280;29632;49.168;9.848;2023-02-13T03:21:16;98671.41;;;6.72;44.11
40838;BME280;29632;49.168;9.848;2023-02-13T03:29:45;98674.91;;;6.71;43.90
40838;BME280;29632;49.168;9.848;2023-02-13T03:38:22;98678.13;;;6.76;43.79
40838;BME280;29632;49.168;9.848;2023-02-13T03:40:53;98682.47;;;6.75;43.77
40838;BME280;29632;49.168;9.848;2023-02-13T03:43:57;98674.56;;;6.78;43.88
40838;BME280;29632;49.168;9.848;2023-02-13T03:46:25;98673.63;;;6.79;43.84
40838;BME280;29632;49.168;9.848;2023-02-13T03:48:52;98670.06;;;6.82;43.90
40838;BME280;29632;49.168;9.848;2023-02-13T03:51:41;98681.19;;;6.84;44.12
40838;BME280;29632;49.168;9.848;2023-02-13T03:54:25;98681.19;;;6.84;43.89
40838;BME280;29632;49.168;9.848;2023-02-13T03:57:14;98682.94;;;6.84;43.90
40838;BME280;29632;49.168;9.848;2023-02-13T04:00:02;98688.06;;;6.85;43.92
40838;BME280;29632;49.168;9.848;2023-02-13T04:02:32;98677.78;;;6.84;44.24
40838;BME280;29632;49.168;9.848;2023-02-13T04:07:27;98689.16;;;6.79;44.29
40838;BME280;29632;49.168;9.848;2023-02-13T04:10:10;98690.09;;;6.78;44.15
40838;BME280;29632;49.168;9.848;2023-02-13T04:15:27;98692.75;;;6.77;43.93
40838;BME280;29632;49.168;9.848;2023-02-13T04:18:02;98698.69;;;6.79;43.95
40838;BME280;29632;49.168;9.848;2023-02-13T04:20:30;98710.75;;;6.80;44.01
40838;BME280;29632;49.168;9.848;2023-02-13T04:23:02;98712.41;;;6.81;43.88
40838;BME280;29632;49.168;9.848;2023-02-13T04:25:28;98715.88;;;6.82;43.93
40838;BME280;29632;49.168;9.848;2023-02-13T04:27:54;98710.59;;;6.83;44.10
40838;BME280;29632;49.168;9.848;2023-02-13T04:30:19;98708.00;;;6.83;44.65
40838;BME280;29632;49.168;9.848;2023-02-13T04:32:45;98710.69;;;6.82;44.33
40838;BME280;29632;49.168;9.848;2023-02-13T04:35:10;98711.59;;;6.80;44.00
40838;BME280;29632;49.168;9.848;2023-02-13T04:37:38;98716.75;;;6.80;44.22
40838;BME280;29632;49.168;9.848;2023-02-13T04:40:04;98709.88;;;6.79;44.19
40838;BME280;29632;49.168;9.848;2023-02-13T04:42:30;98713.34;;;6.80;44.20
40838;BME280;29632;49.168;9.848;2023-02-13T04:44:55;98710.69;;;6.82;44.42
40838;BME280;29632;49.168;9.848;2023-02-13T04:47:21;98704.56;;;6.83;44.21
40838;BME280;29632;49.168;9.848;2023-02-13T04:49:46;98705.34;;;6.85;44.39
40838;BME280;29632;49.168;9.848;2023-02-13T04:52:12;98712.19;;;6.86;44.26
40838;BME280;29632;49.168;9.848;2023-02-13T04:54:39;98703.53;;;6.87;44.07
40838;BME280;29632;49.168;9.848;2023-02-13T04:57:05;98717.25;;;6.89;43.72
40838;BME280;29632;49.168;9.848;2023-02-13T04:59:31;98713.72;;;6.90;44.33
40838;BME280;29632;49.168;9.848;2023-02-13T05:01:56;98713.66;;;6.91;44.50
40838;BME280;29632;49.168;9.848;2023-02-13T05:04:24;98713.59;;;6.93;44.19
40838;BME280;29632;49.168;9.848;2023-02-13T05:06:50;98712.69;;;6.94;44.34
40838;BME280;29632;49.168;9.848;2023-02-13T05:09:16;98716.03;;;6.96;44.13
40838;BME280;29632;49.168;9.848;2023-02-13T05:11:41;98709.16;;;6.95;44.13
40838;BME280;29632;49.168;9.848;2023-02-13T05:14:09;98713.38;;;6.97;44.10
40838;BME280;29632;49.168;9.848;2023-02-13T05:16:34;98715.97;;;6.97;44.26
40838;BME280;29632;49.168;9.848;2023-02-13T05:19:00;98721.06;;;6.99;44.58
40838;BME280;29632;49.168;9.848;2023-02-13T05:21:25;98721.84;;;7.01;44.03
40838;BME280;29632;49.168;9.848;2023-02-13T05:24:10;98720.97;;;7.00;44.26
40838;BME280;29632;49.168;9.848;2023-02-13T05:26:35;98719.25;;;7.01;44.15
40838;BME280;29632;49.168;9.848;2023-02-13T05:29:01;98720.84;;;7.04;44.84
40838;BME280;29632;49.168;9.848;2023-02-13T05:31:54;98715.72;;;7.02;44.46
40838;BME280;29632;49.168;9.848;2023-02-13T05:34:20;98714.00;;;7.03;44.12
40838;BME280;29632;49.168;9.848;2023-02-13T05:36:46;98720.00;;;7.03;44.61
40838;BME280;29632;49.168;9.848;2023-02-13T05:39:12;98724.25;;;7.04;44.45
40838;BME280;29632;49.168;9.848;2023-02-13T05:41:40;98719.94;;;7.05;44.18
40838;BME280;29632;49.168;9.848;2023-02-13T05:44:06;98713.75;;;7.07;44.09
40838;BME280;29632;49.168;9.848;2023-02-13T05:46:31;98713.69;;;7.09;44.48
40838;BME280;29632;49.168;9.848;2023-02-13T05:48:57;98717.09;;;7.09;44.64
40838;BME280;29632;49.168;9.848;2023-02-13T05:51:23;98714.59;;;7.08;44.39
40838;BME280;29632;49.168;9.848;2023-02-13T05:53:48;98716.41;;;7.06;44.50
40838;BME280;29632;49.168;9.848;2023-02-13T05:56:14;98718.16;;;7.05;44.58
40838;BME280;29632;49.168;9.848;2023-02-13T05:58:40;98719.06;;;7.04;44.61
40838;BME280;29632;49.168;9.848;2023-02-13T06:01:06;98721.75;;;7.03;45.03
40838;BME280;29632;49.168;9.848;2023-02-13T06:03:31;98720.00;;;7.03;44.45
40838;BME280;29632;49.168;9.848;2023-02-13T06:05:57;98721.66;;;7.04;44.66
40838;BME280;29632;49.168;9.848;2023-02-13T06:08:23;98719.16;;;7.03;44.50
40838;BME280;29632;49.168;9.848;2023-02-13T06:10:50;98721.66;;;7.04;44.72
40838;BME280;29632;49.168;9.848;2023-02-13T06:13:16;98717.41;;;7.03;44.79
40838;BME280;29632;49.168;9.848;2023-02-13T06:15:42;98721.66;;;7.04;44.55
40838;BME280;29632;49.168;9.848;2023-02-13T06:18:08;98722.59;;;7.03;44.28
40838;BME280;29632;49.168;9.848;2023-02-13T06:20:33;98725.19;;;7.03;44.71
40838;BME280;29632;49.168;9.848;2023-02-13T06:22:59;98722.72;;;7.00;44.61
40838;BME280;29632;49.168;9.848;2023-02-13T06:25:25;98725.47;;;6.97;44.49
40838;BME280;29632;49.168;9.848;2023-02-13T06:27:51;98726.41;;;6.96;45.20
40838;BME280;29632;49.168;9.848;2023-02-13T06:30:17;98724.78;;;6.93;44.96
40838;BME280;29632;49.168;9.848;2023-02-13T06:32:43;98725.63;;;6.94;44.74
40838;BME280;29632;49.168;9.848;2023-02-13T06:35:10;98725.63;;;6.94;44.80
40838;BME280;29632;49.168;9.848;2023-02-13T06:37:35;98731.78;;;6.91;44.91
40838;BME280;29632;49.168;9.848;2023-02-13T06:40:01;98732.72;;;6.90;45.45
40838;BME280;29632;49.168;9.848;2023-02-13T06:42:27;98726.69;;;6.90;45.21
40838;BME280;29632;49.168;9.848;2023-02-13T06:44:52;98721.56;;;6.88;44.98
40838;BME280;29632;49.168;9.848;2023-02-13T06:47:18;98732.84;;;6.87;45.11
40838;BME280;29632;49.168;9.848;2023-02-13T06:49:43;98736.28;;;6.88;44.89
40838;BME280;29632;49.168;9.848;2023-02-13T06:52:09;98733.63;;;6.89;44.86
40838;BME280;29632;49.168;9.848;2023-02-13T06:54:35;98735.38;;;6.89;45.20
40838;BME280;29632;49.168;9.848;2023-02-13T06:57:00;98733.75;;;6.86;44.62
40838;BME280;29632;49.168;9.848;2023-02-13T06:59:26;98734.75;;;6.84;45.11
40838;BME280;29632;49.168;9.848;2023-02-13T07:01:52;98740.00;;;6.82;44.96
40838;BME280;29632;49.168;9.848;2023-02-13T07:04:17;98746.09;;;6.81;45.04
40838;BME280;29632;49.168;9.848;2023-02-13T07:06:43;98741.84;;;6.80;44.64
40838;BME280;29632;49.168;9.848;2023-02-13T07:09:08;98740.22;;;6.77;44.47
40838;BME280;29632;49.168;9.848;2023-02-13T07:11:35;98741.97;;;6.77;45.01
40838;BME280;29632;49.168;9.848;2023-02-13T07:14:01;98751.50;;;6.76;44.79
40838;BME280;29632;49.168;9.848;2023-02-13T07:16:27;98748.97;;;6.75;44.75
40838;BME280;29632;49.168;9.848;2023-02-13T07:18:53;98748.91;;;6.76;44.84
40838;BME280;29632;49.168;9.848;2023-02-13T07:21:18;98753.16;;;6.77;45.09
40838;BME280;29632;49.168;9.848;2023-02-13T07:23:44;98751.50;;;6.76;45.14
40838;BME280;29632;49.168;9.848;2023-02-13T07:26:10;98748.91;;;6.76;44.92
40838;BME280;29632;49.168;9.848;2023-02-13T07:28:35;98748.91;;;6.76;45.09
40838;BME280;29632;49.168;9.848;2023-02-13T07:31:04;98760.94;;;6.77;44.88
40838;BME280;29632;49.168;9.848;2023-02-13T07:33:31;98753.09;;;6.79;44.74
40838;BME280;29632;49.168;9.848;2023-02-13T07:35:57;98752.25;;;6.78;45.46
40838;BME280;29632;49.168;9.848;2023-02-13T07:38:23;98757.44;;;6.78;44.99
40838;BME280;29632;49.168;9.848;2023-02-13T07:40:48;98760.84;;;6.79;45.43
40838;BME280;29632;49.168;9.848;2023-02-13T07:43:14;98754.84;;;6.78;44.98
40838;BME280;29632;49.168;9.848;2023-02-13T07:45:39;98757.44;;;6.78;44.78
40838;BME280;29632;49.168;9.848;2023-02-13T07:48:05;98753.09;;;6.79;45.08
40838;BME280;29632;49.168;9.848;2023-02-13T07:50:31;98757.38;;;6.80;45.10
40838;BME280;29632;49.168;9.848;2023-02-13T07:53:00;98758.97;;;6.83;44.93
40838;BME280;29632;49.168;9.848;2023-02-13T07:55:27;98754.63;;;6.83;45.15
40838;BME280;29632;49.168;9.848;2023-02-13T07:57:54;98753.72;;;6.84;44.81
40838;BME280;29632;49.168;9.848;2023-02-13T08:00:20;98751.97;;;6.85;45.54
40838;BME280;29632;49.168;9.848;2023-02-13T08:02:46;98759.53;;;6.89;44.63
40838;BME280;29632;49.168;9.848;2023-02-13T08:05:12;98755.16;;;6.90;44.94
40838;BME280;29632;49.168;9.848;2023-02-13T08:07:38;98749.03;;;6.92;45.03
40838;BME280;29632;49.168;9.848;2023-02-13T08:10:07;98755.03;;;6.93;44.97
40838;BME280;29632;49.168;9.848;2023-02-13T08:12:52;98757.63;;;6.93;44.58
40838;BME280;29632;49.168;9.848;2023-02-13T08:15:18;98752.50;;;6.91;45.55
40838;BME280;29632;49.168;9.848;2023-02-13T08:17:43;98755.03;;;6.93;45.35
40838;BME280;29632;49.168;9.848;2023-02-13T08:20:09;98752.31;;;6.96;45.06
40838;BME280;29632;49.168;9.848;2023-02-13T08:22:36;98754.81;;;6.97;45.07
40838;BME280;29632;49.168;9.848;2023-02-13T08:25:02;98761.66;;;6.98;44.75
40838;BME280;29632;49.168;9.848;2023-02-13T08:27:28;98763.34;;;6.99;45.03
40838;BME280;29632;49.168;9.848;2023-02-13T08:29:55;98756.28;;;7.03;44.77
40838;BME280;29632;49.168;9.848;2023-02-13T08:32:22;98751.84;;;7.05;44.78
40838;BME280;29632;49.168;9.848;2023-02-13T08:34:48;98756.06;;;7.08;44.67
40838;BME280;29632;49.168;9.848;2023-02-13T08:37:14;98753.38;;;7.09;45.39
40838;BME280;29632;49.168;9.848;2023-02-13T08:39:40;98754.06;;;7.13;44.64
40838;BME280;29632;49.168;9.848;2023-02-13T08:42:05;98746.91;;;7.18;44.97
40838;BME280;29632;49.168;9.848;2023-02-13T08:44:31;98750.28;;;7.20;45.37
40838;BME280;29632;49.168;9.848;2023-02-13T08:46:57;98750.97;;;7.24;44.87
40838;BME280;29632;49.168;9.848;2023-02-13T08:49:22;98756.84;;;7.27;44.57
40838;BME280;29632;49.168;9.848;2023-02-13T08:51:49;98753.25;;;7.30;45.28
40838;BME280;29632;49.168;9.848;2023-02-13T08:54:15;98753.88;;;7.35;44.96
40838;BME280;29632;49.168;9.848;2023-02-13T08:56:41;98758.09;;;7.37;44.66
40838;BME280;29632;49.168;9.848;2023-02-13T08:59:07;98762.03;;;7.45;44.89
40838;BME280;29632;49.168;9.848;2023-02-13T09:01:33;98766.75;;;7.54;44.71
40838;BME280;29632;49.168;9.848;2023-02-13T09:03:59;98762.88;;;7.63;44.58
40838;BME280;29632;49.168;9.848;2023-02-13T09:06:24;98759.81;;;7.72;45.32
40838;BME280;29632;49.168;9.848;2023-02-13T09:08:53;98766.13;;;7.84;44.66
40838;BME280;29632;49.168;9.848;2023-02-13T09:11:19;98765.50;;;7.96;45.29
40838;BME280;29632;49.168;9.848;2023-02-13T09:13:48;98762.94;;;8.12;44.25
40838;BME280;29632;49.168;9.848;2023-02-13T09:16:14;98755.97;;;8.30;43.70
40838;BME280;29632;49.168;9.848;2023-02-13T09:18:40;98753.59;;;8.43;44.44
40838;BME280;29632;49.168;9.848;2023-02-13T09:21:07;98762.47;;;8.55;44.13
40838;BME280;29632;49.168;9.848;2023-02-13T09:23:35;98761.22;;;8.62;44.28
40838;BME280;29632;49.168;9.848;2023-02-13T09:26:02;98764.81;;;8.75;44.06
40838;BME280;29632;49.168;9.848;2023-02-13T09:28:30;98767.41;;;8.91;43.74
40838;BME280;29632;49.168;9.848;2023-02-13T09:30:56;98765.47;;;9.11;43.85
40838;BME280;29632;49.168;9.848;2023-02-13T09:33:22;98766.19;;;9.29;44.25
40838;BME280;29632;49.168;9.848;2023-02-13T09:35:48;98770.22;;;9.49;44.21
40838;BME280;29632;49.168;9.848;2023-02-13T09:38:13;98756.91;;;9.69;43.58
40838;BME280;29632;49.168;9.848;2023-02-13T09:40:44;98757.63;;;10.01;43.55
40838;BME280;29632;49.168;9.848;2023-02-13T09:43:19;98762.84;;;10.59;42.71
40838;BME280;29632;49.168;9.848;2023-02-13T09:45:47;98760.06;;;11.17;42.38
40838;BME280;29632;49.168;9.848;2023-02-13T09:48:28;98754.75;;;11.71;41.80
40838;BME280;29632;49.168;9.848;2023-02-13T09:50:55;98753.44;;;12.17;41.37
40838;BME280;29632;49.168;9.848;2023-02-13T09:53:23;98754.53;;;12.51;41.12
40838;BME280;29632;49.168;9.848;2023-02-13T10:01:53;98758.34;;;13.44;40.67
40838;BME280;29632;49.168;9.848;2023-02-13T10:05:00;98755.81;;;13.66;40.53
40838;BME280;29632;49.168;9.848;2023-02-13T10:07:38;98758.00;;;13.84;41.06
40838;BME280;29632;49.168;9.848;2023-02-13T10:15:58;98757.22;;;14.28;41.85
40838;BME280;29632;49.168;9.848;2023-02-13T10:18:28;98759.00;;;14.50;41.91
40838;BME280;29632;49.168;9.848;2023-02-13T10:21:01;98747.03;;;14.91;41.64
40838;BME280;29632;49.168;9.848;2023-02-13T10:23:40;98751.28;;;15.36;41.35
40838;BME280;29632;49.168;9.848;2023-02-13T10:26:26;98743.13;;;15.93;40.88
40838;BME280;29632;49.168;9.848;2023-02-13T10:29:23;98740.16;;;16.48;40.26
40838;BME280;29632;49.168;9.848;2023-02-13T10:32:10;98739.19;;;17.09;40.03
40838;BME280;29632;49.168;9.848;2023-02-13T10:34:43;98732.28;;;17.57;39.51
40838;BME280;29632;49.168;9.848;2023-02-13T10:37:14;98739.69;;;18.00;39.00
40838;BME280;29632;49.168;9.848;2023-02-13T10:39:42;98734.00;;;18.33;38.87
40838;BME280;29632;49.168;9.848;2023-02-13T10:42:13;98737.47;;;18.61;38.33
40838;BME280;29632;49.168;9.848;2023-02-13T10:51:06;98719.72;;;18.35;38.31
40838;BME280;29632;49.168;9.848;2023-02-13T10:59:14;98716.66;;;17.16;40.03
40838;BME280;29632;49.168;9.848;2023-02-13T11:01:52;98711.16;;;16.78;40.42
40838;BME280;29632;49.168;9.848;2023-02-13T11:04:20;98704.47;;;16.45;40.82
40838;BME280;29632;49.168;9.848;2023-02-13T11:09:22;98695.56;;;15.96;41.45
40838;BME280;29632;49.168;9.848;2023-02-13T11:11:48;98698.94;;;15.77;41.71
40838;BME280;29632;49.168;9.848;2023-02-13T11:14:21;98695.06;;;15.60;41.84
40838;BME280;29632;49.168;9.848;2023-02-13T11:17:01;98699.81;;;15.45;42.11
40838;BME280;29632;49.168;9.848;2023-02-13T11:19:33;98696.41;;;15.33;42.28
40838;BME280;29632;49.168;9.848;2023-02-13T11:22:07;98691.19;;;15.22;42.51
40838;BME280;29632;49.168;9.848;2023-02-13T11:24:34;98689.22;;;15.14;42.18
40838;BME280;29632;49.168;9.848;2023-02-13T11:27:05;98697.47;;;15.09;42.38
40838;BME280;29632;49.168;9.848;2023-02-13T11:29:35;98694.13;;;15.07;42.52
40838;BME280;29632;49.168;9.848;2023-02-13T11:34:30;98701.53;;;15.02;42.69
40838;BME280;29632;49.168;9.848;2023-02-13T11:39:42;98691.69;;;14.95;42.38
40838;BME280;29632;49.168;9.848;2023-02-13T11:44:51;98689.25;;;14.82;42.33
40838;BME280;29632;49.168;9.848;2023-02-13T11:47:38;98693.16;;;14.76;42.96
40838;BME280;29632;49.168;9.848;2023-02-13T11:50:20;98685.69;;;14.71;42.90
40838;BME280;29632;49.168;9.848;2023-02-13T11:52:55;98689.97;;;14.72;42.85
40838;BME280;29632;49.168;9.848;2023-02-13T11:55:30;98685.31;;;14.76;42.87
40838;BME280;29632;49.168;9.848;2023-02-13T12:00:36;98689.09;;;14.83;42.69
40838;BME280;29632;49.168;9.848;2023-02-13T12:03:27;98683.72;;;14.85;42.73
40838;BME280;29632;49.168;9.848;2023-02-13T12:06:10;98686.34;;;14.85;42.67
40838;BME280;29632;49.168;9.848;2023-02-13T12:08:41;98682.66;;;14.87;42.60
40838;BME280;29632;49.168;9.848;2023-02-13T12:13:58;98682.25;;;14.92;42.53
40838;BME280;29632;49.168;9.848;2023-02-13T12:16:34;98687.25;;;14.95;42.78
40838;BME280;29632;49.168;9.848;2023-02-13T12:19:06;98684.53;;;14.97;42.66
40838;BME280;29632;49.168;9.848;2023-02-13T12:22:05;98684.16;;;15.01;42.33
40838;BME280;29632;49.168;9.848;2023-02-13T12:30:41;98685.63;;;14.94;42.60
40838;BME280;29632;49.168;9.848;2023-02-13T12:33:17;98676.06;;;14.93;42.76
40838;BME280;29632;49.168;9.848;2023-02-13T12:36:29;98686.19;;;14.98;42.55
40838;BME280;29632;49.168;9.848;2023-02-13T12:41:49;98673.84;;;15.09;42.65
40838;BME280;29632;49.168;9.848;2023-02-13T12:49:46;98660.44;;;15.45;42.38
40838;BME280;29632;49.168;9.848;2023-02-13T12:55:16;98666.72;;;15.75;42.42
40838;BME280;29632;49.168;9.848;2023-02-13T13:03:27;98662.34;;;16.26;42.19
40838;BME280;29632;49.168;9.848;2023-02-13T13:06:29;98666.94;;;16.43;41.81
40838;BME280;29632;49.168;9.848;2023-02-13T13:09:12;98664.91;;;16.66;41.68
40838;BME280;29632;49.168;9.848;2023-02-13T13:14:52;98662.28;;;16.76;41.58
40838;BME280;29632;49.168;9.848;2023-02-13T13:22:33;98656.09;;;16.87;42.05
40838;BME280;29632;49.168;9.848;2023-02-13T13:25:31;98660.25;;;16.89;42.05
40838;BME280;29632;49.168;9.848;2023-02-13T13:28:06;98654.44;;;16.95;42.35
40838;BME280;29632;49.168;9.848;2023-02-13T13:30:36;98661.91;;;17.00;42.44
40838;BME280;29632;49.168;9.848;2023-02-13T13:33:05;98652.63;;;17.06;42.63
40838;BME280;29632;49.168;9.848;2023-02-13T13:35:36;98652.88;;;17.22;42.69
40838;BME280;29632;49.168;9.848;2023-02-13T13:40:38;98650.00;;;17.72;42.66
40838;BME280;29632;49.168;9.848;2023-02-13T13:43:16;98645.59;;;18.10;42.07
40838;BME280;29632;49.168;9.848;2023-02-13T13:45:48;98646.19;;;18.50;41.97
40838;BME280;29632;49.168;9.848;2023-02-13T13:48:39;98639.72;;;18.80;41.50
40838;BME280;29632;49.168;9.848;2023-02-13T13:51:08;98640.63;;;19.07;41.26
40838;BME280;29632;49.168;9.848;2023-02-13T13:56:25;98643.09;;;19.53;41.37
40838;BME280;29632;49.168;9.848;2023-02-13T13:58:51;98638.75;;;19.70;41.19
40838;BME280;29632;49.168;9.848;2023-02-13T14:01:21;98628.44;;;19.85;41.19
40838;BME280;29632;49.168;9.848;2023-02-13T14:04:02;98636.16;;;20.12;41.10
40838;BME280;29632;49.168;9.848;2023-02-13T14:09:37;98629.50;;;20.51;40.51
40838;BME280;29632;49.168;9.848;2023-02-13T14:14:54;98635.53;;;20.78;40.49
40838;BME280;29632;49.168;9.848;2023-02-13T14:28:39;98635.69;;;21.25;39.58
40838;BME280;29632;49.168;9.848;2023-02-13T14:31:07;98631.91;;;21.11;39.72
40838;BME280;29632;49.168;9.848;2023-02-13T14:33:36;98631.56;;;20.98;39.80
40838;BME280;29632;49.168;9.848;2023-02-13T14:36:05;98628.75;;;20.83;40.02
40838;BME280;29632;49.168;9.848;2023-02-13T14:38:31;98632.22;;;20.75;40.16
40838;BME280;29632;49.168;9.848;2023-02-13T14:40:58;98630.25;;;20.78;40.23
40838;BME280;29632;49.168;9.848;2023-02-13T14:43:48;98623.63;;;20.98;39.93
40838;BME280;29632;49.168;9.848;2023-02-13T14:49:04;98623.97;;;21.20;39.50
40838;BME280;29632;49.168;9.848;2023-02-13T14:51:39;98628.06;;;21.14;39.48
40838;BME280;29632;49.168;9.848;2023-02-13T14:54:12;98615.34;;;20.77;39.81
40838;BME280;29632;49.168;9.848;2023-02-13T14:56:41;98613.63;;;20.43;40.23
40838;BME280;29632;49.168;9.848;2023-02-13T14:59:16;98611.06;;;20.16;40.49
40838;BME280;29632;49.168;9.848;2023-02-13T15:01:49;98614.47;;;20.00;40.60
40838;BME280;29632;49.168;9.848;2023-02-13T15:04:31;98620.09;;;19.97;40.42
40838;BME280;29632;49.168;9.848;2023-02-13T15:07:00;98626.03;;;19.99;40.13
40838;BME280;29632;49.168;9.848;2023-02-13T15:09:36;98616.28;;;20.00;40.23
40838;BME280;29632;49.168;9.848;2023-02-13T15:12:04;98621.88;;;19.97;39.88
40838;BME280;29632;49.168;9.848;2023-02-13T15:14:47;98619.25;;;19.97;39.83
40838;BME280;29632;49.168;9.848;2023-02-13T15:17:18;98616.75;;;19.87;39.85
40838;BME280;29632;49.168;9.848;2023-02-13T15:19:46;98626.94;;;19.56;40.09
40838;BME280;29632;49.168;9.848;2023-02-13T15:22:34;98622.97;;;19.26;40.20
40838;BME280;29632;49.168;9.848;2023-02-13T15:25:00;98624.88;;;18.97;40.36
40838;BME280;29632;49.168;9.848;2023-02-13T15:27:28;98618.81;;;18.69;40.24
40838;BME280;29632;49.168;9.848;2023-02-13T15:29:55;98632.53;;;18.37;40.82
40838;BME280;29632;49.168;9.848;2023-02-13T15:32:29;98628.38;;;18.06;40.69
40838;BME280;29632;49.168;9.848;2023-02-13T15:34:55;98628.50;;;17.77;40.72
40838;BME280;29632;49.168;9.848;2023-02-13T15:37:27;98625.97;;;17.48;41.00
40838;BME280;29632;49.168;9.848;2023-02-13T15:39:53;98632.81;;;17.21;40.91
40838;BME280;29632;49.168;9.848;2023-02-13T15:42:19;98636.56;;;16.99;40.99